createdAt,value
2018-04-23T00:00:16.399Z,22.86
2018-04-23T00:00:48.435Z,22.85
2018-04-23T00:01:20.463Z,22.83
2018-04-23T00:01:52.526Z,22.84
2018-04-23T00:02:24.545Z,22.87
2018-04-23T00:02:56.573Z,22.86
2018-04-23T00:03:28.655Z,22.85
2018-04-23T00:04:00.651Z,22.83
2018-04-23T00:04:32.684Z,22.82
2018-04-23T00:05:04.935Z,22.83
2018-04-23T00:05:36.957Z,22.82
2018-04-23T00:06:09.766Z,22.78
2018-04-23T00:06:41.789Z,22.77
2018-04-23T00:07:13.820Z,22.77
2018-04-23T00:07:46.638Z,22.74
2018-04-23T00:08:18.681Z,22.76
2018-04-23T00:08:50.722Z,22.74
2018-04-23T00:09:22.739Z,22.75
2018-04-23T00:09:55.548Z,22.75
2018-04-23T00:10:27.563Z,22.78
2018-04-23T00:11:00.355Z,22.77
2018-04-23T00:11:32.467Z,22.74
2018-04-23T00:12:04.461Z,22.72
2018-04-23T00:12:36.500Z,22.73
2018-04-23T00:13:08.538Z,22.72
2018-04-23T00:13:41.388Z,22.71
2018-04-23T00:14:13.398Z,22.69
2018-04-23T00:14:45.415Z,22.70
2018-04-23T00:15:18.207Z,22.70
2018-04-23T00:15:50.231Z,22.71
2018-04-23T00:16:23.024Z,22.71
2018-04-23T00:16:55.078Z,22.70
2018-04-23T00:17:27.108Z,22.70
2018-04-23T00:17:59.901Z,22.69
2018-04-23T00:18:31.929Z,22.66
2018-04-23T00:19:04.714Z,22.69
2018-04-23T00:19:36.740Z,22.70
2018-04-23T00:20:09.538Z,22.69
2018-04-23T00:20:41.617Z,22.69
2018-04-23T00:21:13.649Z,22.70
2018-04-23T00:21:45.670Z,22.69
2018-04-23T00:22:18.499Z,22.68
2018-04-23T00:22:50.490Z,22.70
2018-04-23T00:23:23.316Z,22.69
2018-04-23T00:23:55.335Z,22.70
2018-04-23T00:24:27.386Z,22.70
2018-04-23T00:24:59.469Z,22.70
2018-04-23T00:25:31.495Z,22.68
2018-04-23T00:26:03.527Z,22.69
2018-04-23T00:26:35.556Z,22.70
2018-04-23T00:27:07.606Z,22.72
2018-04-23T00:27:39.602Z,22.72
2018-04-23T00:28:11.620Z,22.72
2018-04-23T00:28:44.471Z,22.73
2018-04-23T00:29:16.516Z,22.72
2018-04-23T00:29:48.549Z,22.73
2018-04-23T00:30:20.568Z,22.72
2018-04-23T00:30:52.646Z,22.71
2018-04-23T00:31:24.673Z,22.72
2018-04-23T00:31:56.724Z,22.69
2018-04-23T00:32:28.739Z,22.69
2018-04-23T00:33:01.531Z,22.69
2018-04-23T00:33:33.571Z,22.69
2018-04-23T00:34:06.358Z,22.66
2018-04-23T00:34:38.371Z,22.66
2018-04-23T00:35:10.395Z,22.67
2018-04-23T00:35:42.423Z,22.67
2018-04-23T00:36:14.456Z,22.67
2018-04-23T00:36:46.478Z,22.67
2018-04-23T00:37:19.281Z,22.66
2018-04-23T00:37:51.339Z,22.66
2018-04-23T00:38:23.359Z,22.66
2018-04-23T00:38:56.154Z,22.67
2018-04-23T00:39:28.181Z,22.68
2018-04-23T00:40:00.966Z,22.68
2018-04-23T00:40:33.089Z,22.68
2018-04-23T00:41:05.097Z,22.68
2018-04-23T00:41:37.111Z,22.67
2018-04-23T00:42:09.145Z,22.64
2018-04-23T00:42:41.940Z,22.65
2018-04-23T00:43:13.983Z,22.63
2018-04-23T00:43:46.771Z,22.67
2018-04-23T00:44:18.808Z,22.65
2018-04-23T00:44:50.837Z,22.61
2018-04-23T00:45:23.647Z,22.61
2018-04-23T00:45:55.677Z,22.63
2018-04-23T00:46:28.472Z,22.63
2018-04-23T00:47:00.508Z,22.61
2018-04-23T00:47:32.545Z,22.62
2018-04-23T00:48:05.346Z,22.63
2018-04-23T00:48:37.371Z,22.64
2018-04-23T00:49:09.404Z,22.64
2018-04-23T00:49:42.191Z,22.65
2018-04-23T00:50:14.219Z,22.67
2018-04-23T00:50:47.037Z,22.65
2018-04-23T00:51:19.093Z,22.65
2018-04-23T00:51:51.125Z,22.66
2018-04-23T00:52:23.179Z,22.68
2018-04-23T00:52:55.219Z,22.66
2018-04-23T00:53:27.251Z,22.64
2018-04-23T00:54:00.064Z,22.64
2018-04-23T00:54:32.084Z,22.64
2018-04-23T00:55:04.895Z,22.65
2018-04-23T00:55:36.919Z,22.66
2018-04-23T00:56:09.001Z,22.64
2018-04-23T00:56:41.044Z,22.64
2018-04-23T00:57:13.059Z,22.65
2018-04-23T00:57:45.081Z,22.64
2018-04-23T00:58:17.126Z,22.64
2018-04-23T00:58:49.142Z,22.62
2018-04-23T00:59:21.159Z,22.60
2018-04-23T00:59:54.092Z,22.60
2018-04-23T01:00:26.087Z,22.62
2018-04-23T01:00:58.132Z,22.61
2018-04-23T01:01:30.932Z,22.60
2018-04-23T01:02:02.944Z,22.61
2018-04-23T01:02:35.726Z,22.66
2018-04-23T01:03:07.827Z,22.64
2018-04-23T01:03:39.888Z,22.61
2018-04-23T01:04:11.907Z,22.61
2018-04-23T01:04:43.932Z,22.61
2018-04-23T01:05:15.991Z,22.62
2018-04-23T01:05:48.023Z,22.62
2018-04-23T01:06:20.880Z,22.63
2018-04-23T01:06:52.903Z,22.63
2018-04-23T01:07:24.934Z,22.62
2018-04-23T01:07:57.001Z,22.62
2018-04-23T01:08:29.004Z,22.63
2018-04-23T01:09:01.038Z,22.63
2018-04-23T01:09:33.858Z,22.61
2018-04-23T01:10:05.884Z,22.63
2018-04-23T01:10:38.663Z,22.63
2018-04-23T01:11:10.691Z,22.61
2018-04-23T01:11:43.526Z,22.62
2018-04-23T01:12:15.547Z,22.63
2018-04-23T01:12:47.576Z,22.62
2018-04-23T01:13:19.654Z,22.64
2018-04-23T01:13:51.685Z,22.64
2018-04-23T01:14:23.719Z,22.63
2018-04-23T01:14:56.499Z,22.62
2018-04-23T01:15:28.540Z,22.64
2018-04-23T01:16:01.328Z,22.64
2018-04-23T01:16:33.389Z,22.64
2018-04-23T01:17:05.424Z,22.64
2018-04-23T01:17:37.465Z,22.63
2018-04-23T01:18:10.258Z,22.65
2018-04-23T01:18:42.279Z,22.64
2018-04-23T01:19:15.096Z,22.63
2018-04-23T01:19:47.111Z,22.63
2018-04-23T01:20:19.181Z,22.64
2018-04-23T01:20:51.941Z,22.63
2018-04-23T01:21:23.993Z,22.64
2018-04-23T01:21:56.044Z,22.63
2018-04-23T01:22:28.062Z,22.62
2018-04-23T01:23:01.116Z,22.61
2018-04-23T01:23:33.118Z,22.60
2018-04-23T01:24:05.145Z,22.60
2018-04-23T01:24:37.938Z,22.59
2018-04-23T01:25:09.971Z,22.58
2018-04-23T01:25:42.756Z,22.57
2018-04-23T01:26:14.798Z,22.59
2018-04-23T01:26:47.589Z,22.59
2018-04-23T01:27:19.612Z,22.57
2018-04-23T01:27:52.405Z,22.56
2018-04-23T01:28:24.514Z,22.56
2018-04-23T01:28:56.496Z,22.57
2018-04-23T01:29:28.539Z,22.56
2018-04-23T01:30:01.326Z,22.56
2018-04-23T01:30:33.355Z,22.55
2018-04-23T01:31:06.147Z,22.55
2018-04-23T01:31:38.173Z,22.53
2018-04-23T01:32:10.986Z,22.52
2018-04-23T01:32:43.003Z,22.53
2018-04-23T01:33:15.296Z,22.54
2018-04-23T01:33:47.322Z,22.55
2018-04-23T01:34:19.437Z,22.55
2018-04-23T01:34:51.418Z,22.56
2018-04-23T01:35:23.469Z,22.56
2018-04-23T01:35:56.259Z,22.55
2018-04-23T01:36:28.291Z,22.54
2018-04-23T01:37:00.315Z,22.53
2018-04-23T01:37:32.340Z,22.54
2018-04-23T01:38:04.413Z,22.54
2018-04-23T01:38:36.435Z,22.55
2018-04-23T01:39:08.519Z,22.53
2018-04-23T01:39:40.499Z,22.53
2018-04-23T01:40:12.559Z,22.53
2018-04-23T01:40:44.574Z,22.52
2018-04-23T01:41:17.375Z,22.51
2018-04-23T01:41:49.436Z,22.50
2018-04-23T01:42:21.478Z,22.51
2018-04-23T01:42:53.513Z,22.52
2018-04-23T01:43:25.582Z,22.52
2018-04-23T01:43:57.603Z,22.51
2018-04-23T01:44:30.386Z,22.50
2018-04-23T01:45:03.171Z,22.48
2018-04-23T01:45:35.220Z,22.48
2018-04-23T01:46:07.982Z,22.48
2018-04-23T01:46:40.052Z,22.48
2018-04-23T01:47:12.069Z,22.47
2018-04-23T01:47:44.847Z,22.46
2018-04-23T01:48:17.680Z,22.48
2018-04-23T01:48:49.685Z,22.47
2018-04-23T01:49:21.715Z,22.48
2018-04-23T01:49:54.498Z,22.51
2018-04-23T01:50:26.530Z,22.48
2018-04-23T01:50:59.698Z,22.51
2018-04-23T01:51:31.683Z,22.50
2018-04-23T01:52:03.748Z,22.50
2018-04-23T01:52:35.805Z,22.50
2018-04-23T01:53:07.810Z,22.50
2018-04-23T01:53:39.845Z,22.51
2018-04-23T01:54:11.892Z,22.50
2018-04-23T01:54:43.918Z,22.50
2018-04-23T01:55:15.941Z,22.51
2018-04-23T01:55:48.813Z,22.53
2018-04-23T01:56:20.872Z,22.52
2018-04-23T01:56:52.902Z,22.52
2018-04-23T01:57:25.678Z,22.51
2018-04-23T01:57:57.707Z,22.48
2018-04-23T01:58:30.496Z,22.51
2018-04-23T01:59:02.538Z,22.51
2018-04-23T01:59:35.331Z,22.48
2018-04-23T02:00:07.366Z,22.47
2018-04-23T02:00:40.175Z,22.47
2018-04-23T02:01:12.186Z,22.47
2018-04-23T02:01:44.219Z,22.46
2018-04-23T02:02:17.037Z,22.47
2018-04-23T02:02:49.038Z,22.45
2018-04-23T02:03:21.829Z,22.46
2018-04-23T02:03:53.862Z,22.43
2018-04-23T02:04:26.656Z,22.43
2018-04-23T02:04:58.708Z,22.43
2018-04-23T02:05:31.494Z,22.43
2018-04-23T02:06:03.533Z,22.44
2018-04-23T02:06:35.550Z,22.44
2018-04-23T02:07:08.347Z,22.44
2018-04-23T02:07:40.369Z,22.44
2018-04-23T02:08:12.382Z,22.46
2018-04-23T02:08:44.400Z,22.43
2018-04-23T02:09:16.432Z,22.43
2018-04-23T02:09:49.249Z,22.42
2018-04-23T02:10:21.280Z,22.41
2018-04-23T02:10:53.315Z,22.42
2018-04-23T02:11:26.099Z,22.39
2018-04-23T02:11:58.121Z,22.40
2018-04-23T02:12:30.923Z,22.42
2018-04-23T02:13:02.968Z,22.42
2018-04-23T02:13:35.001Z,22.43
2018-04-23T02:14:07.029Z,22.42
2018-04-23T02:14:39.052Z,22.42
2018-04-23T02:15:11.075Z,22.43
2018-04-23T02:15:43.110Z,22.42
2018-04-23T02:16:15.127Z,22.42
2018-04-23T02:16:47.155Z,22.42
2018-04-23T02:17:19.182Z,22.43
2018-04-23T02:17:51.218Z,22.44
2018-04-23T02:18:23.248Z,22.44
2018-04-23T02:18:56.032Z,22.44
2018-04-23T02:19:28.051Z,22.44
2018-04-23T02:20:00.086Z,22.43
2018-04-23T02:20:32.141Z,22.40
2018-04-23T02:21:04.152Z,22.40
2018-04-23T02:21:36.194Z,22.39
2018-04-23T02:22:08.963Z,22.37
2018-04-23T02:22:40.998Z,22.38
2018-04-23T02:23:13.005Z,22.36
2018-04-23T02:23:45.066Z,22.32
2018-04-23T02:24:17.088Z,22.33
2018-04-23T02:24:49.143Z,22.34
2018-04-23T02:25:21.169Z,22.33
2018-04-23T02:25:53.187Z,22.32
2018-04-23T02:26:25.972Z,22.33
2018-04-23T02:26:58.771Z,22.34
2018-04-23T02:27:30.789Z,22.34
2018-04-23T02:28:02.839Z,22.35
2018-04-23T02:28:35.623Z,22.34
2018-04-23T02:29:07.709Z,22.35
2018-04-23T02:29:39.732Z,22.36
2018-04-23T02:30:11.752Z,22.35
2018-04-23T02:30:43.767Z,22.35
2018-04-23T02:31:15.815Z,22.37
2018-04-23T02:31:47.840Z,22.37
2018-04-23T02:32:19.871Z,22.38
2018-04-23T02:32:52.690Z,22.38
2018-04-23T02:33:24.719Z,22.39
2018-04-23T02:33:56.739Z,22.38
2018-04-23T02:34:29.544Z,22.37
2018-04-23T02:35:01.559Z,22.36
2018-04-23T02:35:34.412Z,22.38
2018-04-23T02:36:06.411Z,22.37
2018-04-23T02:36:38.463Z,22.39
2018-04-23T02:37:10.510Z,22.39
2018-04-23T02:37:42.515Z,22.39
2018-04-23T02:38:14.546Z,22.40
2018-04-23T02:38:46.577Z,22.40
2018-04-23T02:39:18.612Z,22.40
2018-04-23T02:39:50.632Z,22.39
2018-04-23T02:40:22.689Z,22.39
2018-04-23T02:40:55.494Z,22.38
2018-04-23T02:41:27.526Z,22.38
2018-04-23T02:41:59.585Z,22.37
2018-04-23T02:42:31.610Z,22.34
2018-04-23T02:43:04.419Z,22.34
2018-04-23T02:43:36.438Z,22.33
2018-04-23T02:44:09.263Z,22.34
2018-04-23T02:44:41.305Z,22.34
2018-04-23T02:45:13.316Z,22.32
2018-04-23T02:45:45.383Z,22.35
2018-04-23T02:46:17.417Z,22.35
2018-04-23T02:46:50.201Z,22.33
2018-04-23T02:47:22.234Z,22.33
2018-04-23T02:47:54.249Z,22.34
2018-04-23T02:48:26.275Z,22.35
2018-04-23T02:48:58.298Z,22.35
2018-04-23T02:49:30.344Z,22.35
2018-04-23T02:50:03.548Z,22.35
2018-04-23T02:50:35.575Z,22.36
2018-04-23T02:51:07.595Z,22.35
2018-04-23T02:51:39.610Z,22.34
2018-04-23T02:52:11.652Z,22.35
2018-04-23T02:52:43.675Z,22.34
2018-04-23T02:53:15.708Z,22.35
2018-04-23T02:53:47.732Z,22.37
2018-04-23T02:54:19.757Z,22.39
2018-04-23T02:54:51.779Z,22.38
2018-04-23T02:55:24.566Z,22.39
2018-04-23T02:55:56.628Z,22.38
2018-04-23T02:56:28.651Z,22.39
2018-04-23T02:57:00.688Z,22.37
2018-04-23T02:57:32.709Z,22.36
2018-04-23T02:58:04.729Z,22.37
2018-04-23T02:58:36.755Z,22.37
2018-04-23T02:59:08.776Z,22.39
2018-04-23T02:59:40.810Z,22.41
2018-04-23T03:00:12.831Z,22.42
2018-04-23T03:00:44.868Z,22.42
2018-04-23T03:01:16.895Z,22.41
2018-04-23T03:01:49.697Z,22.39
2018-04-23T03:02:21.723Z,22.39
2018-04-23T03:02:54.499Z,22.39
2018-04-23T03:03:27.288Z,22.38
2018-04-23T03:03:59.306Z,22.37
2018-04-23T03:04:32.102Z,22.38
2018-04-23T03:05:04.118Z,22.39
2018-04-23T03:05:36.181Z,22.36
2018-04-23T03:06:08.190Z,22.37
2018-04-23T03:06:40.210Z,22.38
2018-04-23T03:07:12.270Z,22.37
2018-04-23T03:07:44.298Z,22.38
2018-04-23T03:08:16.329Z,22.36
2018-04-23T03:08:48.360Z,22.38
2018-04-23T03:09:20.374Z,22.36
2018-04-23T03:09:52.427Z,22.36
2018-04-23T03:10:24.450Z,22.36
2018-04-23T03:10:57.239Z,22.37
2018-04-23T03:11:29.292Z,22.37
2018-04-23T03:12:01.301Z,22.35
2018-04-23T03:12:33.330Z,22.36
2018-04-23T03:13:05.344Z,22.35
2018-04-23T03:13:37.410Z,22.36
2018-04-23T03:14:09.402Z,22.38
2018-04-23T03:14:41.421Z,22.36
2018-04-23T03:15:13.443Z,22.36
2018-04-23T03:15:45.504Z,22.35
2018-04-23T03:16:17.517Z,22.34
2018-04-23T03:16:50.324Z,22.35
2018-04-23T03:17:22.355Z,22.34
2018-04-23T03:17:54.371Z,22.33
2018-04-23T03:18:26.398Z,22.32
2018-04-23T03:18:58.431Z,22.32
2018-04-23T03:19:30.463Z,22.33
2018-04-23T03:20:02.493Z,22.33
2018-04-23T03:20:35.287Z,22.33
2018-04-23T03:21:07.322Z,22.33
2018-04-23T03:21:40.113Z,22.34
2018-04-23T03:22:12.139Z,22.33
2018-04-23T03:22:44.916Z,22.34
2018-04-23T03:23:16.987Z,22.33
2018-04-23T03:23:49.006Z,22.33
2018-04-23T03:24:21.841Z,22.33
2018-04-23T03:24:53.856Z,22.32
2018-04-23T03:25:25.875Z,22.33
2018-04-23T03:25:58.670Z,22.32
2018-04-23T03:26:30.697Z,22.32
2018-04-23T03:27:02.715Z,22.32
2018-04-23T03:27:34.727Z,22.30
2018-04-23T03:28:06.777Z,22.29
2018-04-23T03:28:38.804Z,22.28
2018-04-23T03:29:11.618Z,22.26
2018-04-23T03:29:43.655Z,22.29
2018-04-23T03:30:15.674Z,22.29
2018-04-23T03:30:48.507Z,22.29
2018-04-23T03:31:20.538Z,22.31
2018-04-23T03:31:52.592Z,22.29
2018-04-23T03:32:24.604Z,22.29
2018-04-23T03:32:57.394Z,22.27
2018-04-23T03:33:29.443Z,22.25
2018-04-23T03:34:01.476Z,22.24
2018-04-23T03:34:34.269Z,22.24
2018-04-23T03:35:06.318Z,22.24
2018-04-23T03:35:39.078Z,22.24
2018-04-23T03:36:11.105Z,22.22
2018-04-23T03:36:43.919Z,22.21
2018-04-23T03:37:15.943Z,22.22
2018-04-23T03:37:47.976Z,22.22
2018-04-23T03:38:20.763Z,22.24
2018-04-23T03:38:52.812Z,22.24
2018-04-23T03:39:24.850Z,22.21
2018-04-23T03:39:57.627Z,22.22
2018-04-23T03:40:30.428Z,22.22
2018-04-23T03:41:02.477Z,22.20
2018-04-23T03:41:34.516Z,22.14
2018-04-23T03:42:06.547Z,22.14
2018-04-23T03:42:38.582Z,22.16
2018-04-23T03:43:10.630Z,22.17
2018-04-23T03:43:42.646Z,22.14
2018-04-23T03:44:14.699Z,22.18
2018-04-23T03:44:46.706Z,22.18
2018-04-23T03:45:19.509Z,22.20
2018-04-23T03:45:51.532Z,22.19
2018-04-23T03:46:23.571Z,22.20
2018-04-23T03:46:56.394Z,22.19
2018-04-23T03:47:28.412Z,22.18
2018-04-23T03:48:00.452Z,22.21
2018-04-23T03:48:32.486Z,22.18
2018-04-23T03:49:05.292Z,22.16
2018-04-23T03:49:37.328Z,22.15
2018-04-23T03:50:10.110Z,22.13
2018-04-23T03:50:42.143Z,22.13
2018-04-23T03:51:14.930Z,22.12
2018-04-23T03:51:46.972Z,22.10
2018-04-23T03:52:19.000Z,22.07
2018-04-23T03:52:51.027Z,22.07
2018-04-23T03:53:23.104Z,22.04
2018-04-23T03:53:55.110Z,22.05
2018-04-23T03:54:27.204Z,22.06
2018-04-23T03:54:59.262Z,22.08
2018-04-23T03:55:32.051Z,22.06
2018-04-23T03:56:04.092Z,22.07
2018-04-23T03:56:36.883Z,22.08
2018-04-23T03:57:08.903Z,22.07
2018-04-23T03:57:41.703Z,22.09
2018-04-23T03:58:13.723Z,22.06
2018-04-23T03:58:46.518Z,22.08
2018-04-23T03:59:18.551Z,22.03
2018-04-23T03:59:51.333Z,22.10
2018-04-23T04:00:23.450Z,22.10
2018-04-23T04:00:55.442Z,22.14
2018-04-23T04:01:27.511Z,22.15
2018-04-23T04:01:59.715Z,22.10
2018-04-23T04:02:32.517Z,22.12
2018-04-23T04:03:04.539Z,22.12
2018-04-23T04:03:37.336Z,22.11
2018-04-23T04:04:09.358Z,22.15
2018-04-23T04:04:42.157Z,22.19
2018-04-23T04:05:14.195Z,22.18
2018-04-23T04:05:46.226Z,22.17
2018-04-23T04:06:19.066Z,22.22
2018-04-23T04:06:51.092Z,22.21
2018-04-23T04:07:23.150Z,22.21
2018-04-23T04:07:55.184Z,22.22
2018-04-23T04:08:27.231Z,22.23
2018-04-23T04:08:59.272Z,22.24
2018-04-23T04:09:31.303Z,22.22
2018-04-23T04:10:03.335Z,22.21
2018-04-23T04:10:35.359Z,22.19
2018-04-23T04:11:07.381Z,22.18
2018-04-23T04:11:39.465Z,22.16
2018-04-23T04:12:11.519Z,22.15
2018-04-23T04:12:43.559Z,22.13
2018-04-23T04:13:15.641Z,22.14
2018-04-23T04:13:47.667Z,22.13
2018-04-23T04:14:19.694Z,22.13
2018-04-23T04:14:51.722Z,22.13
2018-04-23T04:15:24.528Z,22.13
2018-04-23T04:15:56.560Z,22.12
2018-04-23T04:16:28.587Z,22.14
2018-04-23T04:17:01.378Z,22.15
2018-04-23T04:17:33.411Z,22.15
2018-04-23T04:18:06.208Z,22.13
2018-04-23T04:18:38.236Z,22.14
2018-04-23T04:19:11.029Z,22.14
2018-04-23T04:19:43.061Z,22.12
2018-04-23T04:20:15.855Z,22.13
2018-04-23T04:20:47.882Z,22.13
2018-04-23T04:21:20.674Z,22.14
2018-04-23T04:21:52.705Z,22.15
2018-04-23T04:22:24.740Z,22.17
2018-04-23T04:22:56.774Z,22.13
2018-04-23T04:23:28.827Z,22.14
2018-04-23T04:24:00.866Z,22.15
2018-04-23T04:24:32.889Z,22.14
2018-04-23T04:25:04.920Z,22.17
2018-04-23T04:25:36.981Z,22.16
2018-04-23T04:26:09.021Z,22.18
2018-04-23T04:26:41.044Z,22.16
2018-04-23T04:27:13.191Z,22.14
2018-04-23T04:27:45.192Z,22.14
2018-04-23T04:28:17.233Z,22.17
2018-04-23T04:28:49.263Z,22.19
2018-04-23T04:29:22.044Z,22.21
2018-04-23T04:29:54.079Z,22.22
2018-04-23T04:30:26.880Z,22.23
2018-04-23T04:30:58.896Z,22.23
2018-04-23T04:31:31.112Z,22.24
2018-04-23T04:32:03.130Z,22.26
2018-04-23T04:32:35.181Z,22.26
2018-04-23T04:33:08.018Z,22.27
2018-04-23T04:33:40.063Z,22.28
2018-04-23T04:34:12.084Z,22.26
2018-04-23T04:34:44.124Z,22.25
2018-04-23T04:35:16.175Z,22.24
2018-04-23T04:35:48.217Z,22.22
2018-04-23T04:36:20.259Z,22.24
2018-04-23T04:36:52.276Z,22.26
2018-04-23T04:37:24.312Z,22.27
2018-04-23T04:37:56.339Z,22.27
2018-04-23T04:38:28.373Z,22.28
2018-04-23T04:39:00.407Z,22.29
2018-04-23T04:39:32.433Z,22.29
2018-04-23T04:40:04.471Z,22.29
2018-04-23T04:40:36.511Z,22.30
2018-04-23T04:41:08.541Z,22.31
2018-04-23T04:41:40.565Z,22.31
2018-04-23T04:42:12.591Z,22.32
2018-04-23T04:42:44.608Z,22.32
2018-04-23T04:43:16.650Z,22.31
2018-04-23T04:43:48.681Z,22.32
2018-04-23T04:44:20.747Z,22.32
2018-04-23T04:44:52.773Z,22.33
2018-04-23T04:45:24.790Z,22.32
2018-04-23T04:45:56.850Z,22.31
2018-04-23T04:46:28.856Z,22.29
2018-04-23T04:47:00.874Z,22.31
2018-04-23T04:47:32.916Z,22.33
2018-04-23T04:48:05.700Z,22.37
2018-04-23T04:48:37.731Z,22.38
2018-04-23T04:49:10.522Z,22.40
2018-04-23T04:49:42.593Z,22.39
2018-04-23T04:51:29.954Z,22.38
2018-04-23T04:52:01.962Z,22.38
2018-04-23T04:52:34.003Z,22.38
2018-04-23T04:53:06.241Z,22.38
2018-04-23T04:53:39.018Z,22.38
2018-04-23T04:54:11.048Z,22.40
2018-04-23T04:54:43.862Z,22.38
2018-04-23T04:55:15.896Z,22.39
2018-04-23T04:55:47.959Z,22.40
2018-04-23T04:56:19.986Z,22.42
2018-04-23T04:56:52.059Z,22.42
2018-04-23T04:57:24.085Z,22.48
2018-04-23T04:57:56.109Z,22.51
2018-04-23T04:58:28.139Z,22.54
2018-04-23T04:59:00.160Z,22.55
2018-04-23T04:59:32.188Z,22.56
2018-04-23T05:00:04.980Z,22.56
2018-04-23T05:00:36.990Z,22.56
2018-04-23T05:01:09.784Z,22.55
2018-04-23T05:01:41.822Z,22.56
2018-04-23T05:02:14.636Z,22.56
2018-04-23T05:02:46.660Z,22.52
2018-04-23T05:03:18.717Z,22.50
2018-04-23T05:03:50.757Z,22.48
2018-04-23T05:04:22.796Z,22.48
2018-04-23T05:04:55.589Z,22.47
2018-04-23T05:05:27.616Z,22.46
2018-04-23T05:06:00.458Z,22.44
2018-04-23T05:06:32.460Z,22.44
2018-04-23T05:07:04.498Z,22.43
2018-04-23T05:07:36.533Z,22.42
2018-04-23T05:08:09.321Z,22.40
2018-04-23T05:08:41.359Z,22.38
2018-04-23T05:09:14.156Z,22.37
2018-04-23T05:09:46.174Z,22.38
2018-04-23T05:10:19.004Z,22.38
2018-04-23T05:10:51.028Z,22.39
2018-04-23T05:11:23.068Z,22.41
2018-04-23T05:11:55.099Z,22.43
2018-04-23T05:12:27.888Z,22.43
2018-04-23T05:12:59.911Z,22.44
2018-04-23T05:13:32.699Z,22.44
2018-04-23T05:14:04.747Z,22.45
2018-04-23T05:14:37.528Z,22.47
2018-04-23T05:15:09.573Z,22.47
2018-04-23T05:15:41.604Z,22.47
2018-04-23T05:16:14.398Z,22.46
2018-04-23T05:16:46.424Z,22.46
2018-04-23T05:17:19.216Z,22.45
2018-04-23T05:17:51.294Z,22.44
2018-04-23T05:18:23.309Z,22.44
2018-04-23T05:18:56.110Z,22.44
2018-04-23T05:19:28.140Z,22.44
2018-04-23T05:20:00.162Z,22.45
2018-04-23T05:20:32.175Z,22.45
2018-04-23T05:21:04.191Z,22.44
2018-04-23T05:21:36.227Z,22.43
2018-04-23T05:22:09.008Z,22.39
2018-04-23T05:22:41.034Z,22.38
2018-04-23T05:23:13.059Z,22.36
2018-04-23T05:23:45.160Z,22.37
2018-04-23T05:24:17.143Z,22.39
2018-04-23T05:24:49.183Z,22.39
2018-04-23T05:25:21.208Z,22.40
2018-04-23T05:25:53.993Z,22.39
2018-04-23T05:26:26.018Z,22.39
2018-04-23T05:26:58.811Z,22.40
2018-04-23T05:27:30.837Z,22.38
2018-04-23T05:28:03.662Z,22.37
2018-04-23T05:28:35.685Z,22.38
2018-04-23T05:29:07.730Z,22.42
2018-04-23T05:29:40.491Z,22.42
2018-04-23T05:30:12.549Z,22.40
2018-04-23T05:30:44.560Z,22.42
2018-04-23T05:31:16.671Z,22.40
2018-04-23T05:31:48.696Z,22.39
2018-04-23T05:32:21.471Z,22.37
2018-04-23T05:32:53.500Z,22.37
2018-04-23T05:33:26.283Z,22.37
2018-04-23T05:33:58.323Z,22.36
2018-04-23T05:34:30.334Z,22.35
2018-04-23T05:35:02.401Z,22.35
2018-04-23T05:35:34.424Z,22.36
2018-04-23T05:36:06.439Z,22.36
2018-04-23T05:36:39.240Z,22.37
2018-04-23T05:37:11.259Z,22.37
2018-04-23T05:37:44.066Z,22.40
2018-04-23T05:38:16.078Z,22.42
2018-04-23T05:38:48.887Z,22.42
2018-04-23T05:39:20.902Z,22.41
2018-04-23T05:39:53.025Z,22.39
2018-04-23T05:40:25.016Z,22.40
2018-04-23T05:40:57.050Z,22.41
2018-04-23T05:41:29.840Z,22.41
2018-04-23T05:42:01.858Z,22.40
2018-04-23T05:42:34.644Z,22.39
2018-04-23T05:43:06.695Z,22.37
2018-04-23T05:43:39.488Z,22.39
2018-04-23T05:44:11.524Z,22.39
2018-04-23T05:44:44.295Z,22.39
2018-04-23T05:45:16.341Z,22.41
2018-04-23T05:45:48.382Z,22.41
2018-04-23T05:46:21.172Z,22.41
2018-04-23T05:46:53.197Z,22.40
2018-04-23T05:47:25.990Z,22.38
2018-04-23T05:47:58.059Z,22.39
2018-04-23T05:48:30.070Z,22.40
2018-04-23T05:49:02.861Z,22.38
2018-04-23T05:49:34.887Z,22.39
2018-04-23T05:50:07.670Z,22.38
2018-04-23T05:50:39.711Z,22.38
2018-04-23T05:51:12.499Z,22.40
2018-04-23T05:51:44.535Z,22.42
2018-04-23T05:52:17.320Z,22.43
2018-04-23T05:52:49.346Z,22.43
2018-04-23T05:53:22.159Z,22.43
2018-04-23T05:53:54.176Z,22.41
2018-04-23T05:54:26.970Z,22.39
2018-04-23T05:54:58.995Z,22.43
2018-04-23T05:55:31.772Z,22.42
2018-04-23T05:56:03.809Z,22.42
2018-04-23T05:56:35.828Z,22.40
2018-04-23T05:57:07.839Z,22.41
2018-04-23T05:57:39.860Z,22.41
2018-04-23T05:58:12.658Z,22.44
2018-04-23T05:58:44.683Z,22.43
2018-04-23T05:59:17.475Z,22.43
2018-04-23T05:59:49.513Z,22.44
2018-04-23T06:00:22.292Z,22.45
2018-04-23T06:00:54.312Z,22.47
2018-04-23T06:01:26.339Z,22.50
2018-04-23T06:01:58.373Z,22.52
2018-04-23T06:02:30.401Z,22.50
2018-04-23T06:03:02.448Z,22.51
2018-04-23T06:03:35.220Z,22.52
2018-04-23T06:04:07.262Z,22.53
2018-04-23T06:04:39.300Z,22.51
2018-04-23T06:05:12.099Z,22.53
2018-04-23T06:05:44.121Z,22.50
2018-04-23T06:06:16.893Z,22.50
2018-04-23T06:06:48.912Z,22.51
2018-04-23T06:07:20.931Z,22.51
2018-04-23T06:07:52.990Z,22.47
2018-04-23T06:08:25.003Z,22.51
2018-04-23T06:08:57.056Z,22.50
2018-04-23T06:09:29.078Z,22.50
2018-04-23T06:10:01.096Z,22.50
2018-04-23T06:10:33.118Z,22.47
2018-04-23T06:11:05.158Z,22.47
2018-04-23T06:11:37.188Z,22.46
2018-04-23T06:12:09.975Z,22.48
2018-04-23T06:12:42.007Z,22.52
2018-04-23T06:13:14.802Z,22.51
2018-04-23T06:13:46.831Z,22.51
2018-04-23T06:14:19.657Z,22.53
2018-04-23T06:14:51.659Z,22.53
2018-04-23T06:15:24.451Z,22.55
2018-04-23T06:15:56.468Z,22.57
2018-04-23T06:16:29.267Z,22.57
2018-04-23T06:17:01.376Z,22.55
2018-04-23T06:17:33.383Z,22.52
2018-04-23T06:18:05.413Z,22.52
2018-04-23T06:18:37.433Z,22.51
2018-04-23T06:19:09.450Z,22.52
2018-04-23T06:19:41.542Z,22.54
2018-04-23T06:20:13.500Z,22.53
2018-04-23T06:20:46.289Z,22.54
2018-04-23T06:21:18.311Z,22.55
2018-04-23T06:21:50.339Z,22.55
2018-04-23T06:22:22.368Z,22.56
2018-04-23T06:22:54.376Z,22.56
2018-04-23T06:23:27.168Z,22.56
2018-04-23T06:23:59.191Z,22.56
2018-04-23T06:24:31.996Z,22.56
2018-04-23T06:25:04.024Z,22.55
2018-04-23T06:25:36.088Z,22.55
2018-04-23T06:26:08.118Z,22.54
2018-04-23T06:26:40.897Z,22.53
2018-04-23T06:27:12.929Z,22.53
2018-04-23T06:27:45.738Z,22.55
2018-04-23T06:28:17.761Z,22.53
2018-04-23T06:28:50.549Z,22.53
2018-04-23T06:29:22.582Z,22.52
2018-04-23T06:29:55.358Z,22.52
2018-04-23T06:30:27.381Z,22.53
2018-04-23T06:30:59.813Z,22.54
2018-04-23T06:31:31.811Z,22.53
2018-04-23T06:32:04.600Z,22.54
2018-04-23T06:32:36.615Z,22.53
2018-04-23T06:33:08.645Z,22.53
2018-04-23T06:33:40.678Z,22.54
2018-04-23T06:34:12.763Z,22.54
2018-04-23T06:34:44.718Z,22.53
2018-04-23T06:35:16.728Z,22.52
2018-04-23T06:35:48.979Z,22.53
2018-04-23T06:36:21.045Z,22.54
2018-04-23T06:36:53.086Z,22.55
2018-04-23T06:37:25.113Z,22.53
2018-04-23T06:37:57.135Z,22.54
2018-04-23T06:38:29.924Z,22.53
2018-04-23T06:39:01.941Z,22.53
2018-04-23T06:39:33.959Z,22.54
2018-04-23T06:40:05.977Z,22.53
2018-04-23T06:40:38.013Z,22.50
2018-04-23T06:41:10.795Z,22.49
2018-04-23T06:41:42.814Z,22.51
2018-04-23T06:42:14.837Z,22.51
2018-04-23T06:42:46.850Z,22.52
2018-04-23T06:43:18.895Z,22.52
2018-04-23T06:43:50.899Z,22.52
2018-04-23T06:44:22.916Z,22.50
2018-04-23T06:44:54.935Z,22.53
2018-04-23T06:45:27.736Z,22.52
2018-04-23T06:45:59.787Z,22.53
2018-04-23T06:46:31.856Z,22.53
2018-04-23T06:47:03.867Z,22.53
2018-04-23T06:47:35.899Z,22.55
2018-04-23T06:48:07.917Z,22.53
2018-04-23T06:48:39.968Z,22.54
2018-04-23T06:49:11.990Z,22.53
2018-04-23T06:49:44.026Z,22.53
2018-04-23T06:50:16.820Z,22.52
2018-04-23T06:50:48.842Z,22.52
2018-04-23T06:51:21.648Z,22.53
2018-04-23T06:51:53.663Z,22.53
2018-04-23T06:52:25.695Z,22.54
2018-04-23T06:52:57.707Z,22.55
2018-04-23T06:53:29.726Z,22.57
2018-04-23T06:54:02.535Z,22.56
2018-04-23T06:54:34.562Z,22.58
2018-04-23T06:55:06.576Z,22.58
2018-04-23T06:55:39.383Z,22.60
2018-04-23T06:56:11.408Z,22.60